Time;durP1;ratioP1;P1;durP2;ratioP2;P2;SDS_P1;SDS_P2;PMS_P1;PMS_P2;Temp;Humidity;BMP_temperature;BMP_pressure;BME280_temperature;BME280_humidity;BME280_pressure;Samples;Min_cycle;Max_cycle;Signal;HPM_P1;HPM_P2
2023/07/04 00:00:58;;;;;;;0.10;0.10;;;;;;;;;;5078517;28;20275;-75
2023/07/04 00:03:26;;;;;;;0.10;0.10;;;;;;;;;;5093425;28;20211;-75
2023/07/04 00:05:53;;;;;;;0.10;0.10;;;;;;;;;;5078982;28;20298;-75
2023/07/04 00:08:21;;;;;;;0.10;0.10;;;;;;;;;;5093452;28;20200;-76
2023/07/04 00:10:47;;;;;;;0.10;0.10;;;;;;;;;;5078475;28;20480;-76
2023/07/04 00:13:14;;;;;;;11.10;2.00;;;;;;;;;;5094278;28;20606;-74
2023/07/04 00:15:44;;;;;;;0.10;0.10;;;;;;;;;;5077574;28;20316;-75
2023/07/04 00:18:10;;;;;;;0.00;0.00;;;;;;;;;;5094655;28;20275;-75
2023/07/04 00:20:38;;;;;;;0.08;0.08;;;;;;;;;;5076897;28;20259;-75
2023/07/04 00:23:05;;;;;;;0.10;0.10;;;;;;;;;;5095005;28;20206;-75
2023/07/04 00:25:32;;;;;;;0.10;0.10;;;;;;;;;;5076217;28;20543;-75
2023/07/04 00:27:58;;;;;;;0.03;0.03;;;;;;;;;;5095802;28;20221;-76
2023/07/04 00:30:25;;;;;;;0.10;0.10;;;;;;;;;;5075265;28;20237;-76
2023/07/04 00:32:52;;;;;;;0.03;0.03;;;;;;;;;;5096594;28;20192;-76
2023/07/04 00:35:18;;;;;;;0.10;0.10;;;;;;;;;;5074405;28;20279;-76
2023/07/04 00:37:46;;;;;;;0.03;0.03;;;;;;;;;;5097680;28;20276;-76
2023/07/04 00:40:13;;;;;;;0.00;0.00;;;;;;;;;;5077656;28;20210;-76
2023/07/04 00:42:41;;;;;;;0.30;0.30;;;;;;;;;;5102262;28;20192;-76
2023/07/04 00:45:09;;;;;;;0.05;0.05;;;;;;;;;;5083824;28;20210;-76
2023/07/04 00:47:43;;;;;;;0.00;0.00;;;;;;;;;;5102854;28;20239;-77
2023/07/04 00:50:13;;;;;;;0.00;0.00;;;;;;;;;;5077387;28;20203;-76
2023/07/04 00:52:40;;;;;;;0.05;0.05;;;;;;;;;;5102070;28;20195;-76
2023/07/04 00:55:10;;;;;;;0.10;0.10;;;;;;;;;;5086965;28;20229;-75
2023/07/04 00:57:38;;;;;;;0.10;0.10;;;;;;;;;;5075638;28;20228;-76
2023/07/04 01:00:13;;;;;;;0.10;0.10;;;;;;;;;;5086968;28;20251;-77
2023/07/04 01:02:40;;;;;;;0.05;0.05;;;;;;;;;;5075506;28;20215;-76
2023/07/04 01:05:07;;;;;;;0.10;0.10;;;;;;;;;;5086809;28;20212;-76
2023/07/04 01:07:36;;;;;;;0.00;0.00;;;;;;;;;;5075384;28;20203;-76
2023/07/04 01:10:06;;;;;;;0.10;0.10;;;;;;;;;;5086731;28;20211;-77
2023/07/04 01:12:36;;;;;;;0.10;0.10;;;;;;;;;;5075251;28;20262;-77
2023/07/04 01:15:02;;;;;;;0.10;0.10;;;;;;;;;;5086972;28;20211;-77
2023/07/04 01:17:28;;;;;;;0.00;0.00;;;;;;;;;;5092001;28;20281;-77
2023/07/04 01:19:55;;;;;;;0.10;0.10;;;;;;;;;;5086839;28;20263;-76
2023/07/04 01:22:27;;;;;;;0.05;0.05;;;;;;;;;;5092038;28;20240;-76
2023/07/04 01:25:00;;;;;;;0.03;0.03;;;;;;;;;;5086473;28;20200;-76
2023/07/04 01:27:30;;;;;;;0.00;0.00;;;;;;;;;;5092021;28;20299;-77
2023/07/04 01:30:00;;;;;;;0.10;0.10;;;;;;;;;;5086650;28;20290;-76
2023/07/04 01:32:28;;;;;;;0.10;0.10;;;;;;;;;;5091787;28;20247;-76
2023/07/04 01:34:58;;;;;;;0.10;0.10;;;;;;;;;;5086528;28;20270;-77
2023/07/04 01:37:24;;;;;;;0.10;0.10;;;;;;;;;;5091679;28;20621;-76
2023/07/04 01:39:51;;;;;;;0.00;0.00;;;;;;;;;;5086441;28;20251;-77
2023/07/04 01:42:18;;;;;;;0.10;0.10;;;;;;;;;;5091630;28;20239;-75
2023/07/04 01:44:48;;;;;;;0.00;0.00;;;;;;;;;;5086367;28;20396;-77
2023/07/04 01:47:14;;;;;;;0.10;0.10;;;;;;;;;;5091663;28;20586;-76
2023/07/04 01:49:41;;;;;;;0.10;0.10;;;;;;;;;;5085079;28;20211;-76
2023/07/04 01:52:08;;;;;;;0.10;0.10;;;;;;;;;;5091519;28;20503;-77
2023/07/04 01:54:35;;;;;;;0.00;0.00;;;;;;;;;;5086027;28;20281;-76
2023/07/04 01:57:01;;;;;;;0.10;0.10;;;;;;;;;;5090474;28;20241;-76
2023/07/04 01:59:28;;;;;;;0.05;0.05;;;;;;;;;;5086789;28;20397;-76
2023/07/04 02:01:56;;;;;;;0.00;0.00;;;;;;;;;;5089402;28;20246;-75
2023/07/04 02:04:22;;;;;;;0.10;0.10;;;;;;;;;;5087466;28;20399;-76
2023/07/04 02:06:48;;;;;;;0.03;0.03;;;;;;;;;;5088667;28;20243;-77
2023/07/04 02:09:16;;;;;;;0.10;0.10;;;;;;;;;;5088013;28;20223;-77
2023/07/04 02:11:42;;;;;;;0.10;0.10;;;;;;;;;;5087818;28;20304;-77
2023/07/04 02:14:09;;;;;;;0.08;0.08;;;;;;;;;;5088769;28;20280;-76
2023/07/04 02:16:35;;;;;;;0.03;0.03;;;;;;;;;;5086855;28;20445;-76
2023/07/04 02:19:03;;;;;;;0.10;0.10;;;;;;;;;;5089820;28;20611;-77
2023/07/04 02:21:29;;;;;;;0.00;0.00;;;;;;;;;;5085969;28;20305;-77
2023/07/04 02:23:55;;;;;;;0.00;0.00;;;;;;;;;;5090248;28;20262;-77
2023/07/04 02:26:22;;;;;;;0.10;0.10;;;;;;;;;;5084891;28;20305;-77
2023/07/04 02:28:48;;;;;;;0.10;0.10;;;;;;;;;;5091474;28;20238;-77
2023/07/04 02:31:15;;;;;;;0.10;0.10;;;;;;;;;;5083687;28;20250;-77
2023/07/04 02:33:41;;;;;;;0.10;0.10;;;;;;;;;;5092075;28;20224;-76
2023/07/04 02:36:11;;;;;;;0.00;0.00;;;;;;;;;;5082868;28;20261;-76
2023/07/04 02:38:38;;;;;;;0.00;0.00;;;;;;;;;;5092427;28;20219;-76
2023/07/04 02:41:05;;;;;;;0.10;0.10;;;;;;;;;;5082096;28;20436;-77
2023/07/04 02:43:31;;;;;;;0.10;0.10;;;;;;;;;;5093208;28;20207;-76
2023/07/04 02:45:57;;;;;;;0.10;0.10;;;;;;;;;;5081334;28;20415;-76
2023/07/04 02:48:25;;;;;;;0.00;0.00;;;;;;;;;;5093956;28;20276;-77
2023/07/04 02:50:52;;;;;;;0.05;0.05;;;;;;;;;;5080554;28;20289;-77
2023/07/04 02:53:22;;;;;;;0.10;0.10;;;;;;;;;;5094894;28;20231;-77
2023/07/04 02:55:48;;;;;;;0.10;0.10;;;;;;;;;;5079905;28;20258;-76
2023/07/04 02:58:15;;;;;;;0.00;0.00;;;;;;;;;;5094901;28;20290;-77
2023/07/04 03:00:41;;;;;;;0.00;0.00;;;;;;;;;;5078769;28;20272;-77
2023/07/04 03:03:08;;;;;;;0.10;0.10;;;;;;;;;;5095763;28;20211;-76
2023/07/04 03:05:35;;;;;;;0.10;0.10;;;;;;;;;;5077929;28;20311;-76
2023/07/04 03:08:01;;;;;;;0.10;0.10;;;;;;;;;;5096624;28;20195;-76
2023/07/04 03:10:29;;;;;;;0.00;0.00;;;;;;;;;;5077032;28;20253;-77
2023/07/04 03:12:55;;;;;;;0.00;0.00;;;;;;;;;;5097470;28;20205;-76
2023/07/04 03:15:21;;;;;;;0.00;0.00;;;;;;;;;;5075499;28;20276;-76
2023/07/04 03:17:48;;;;;;;0.10;0.10;;;;;;;;;;5098333;28;20282;-77
2023/07/04 03:20:14;;;;;;;0.10;0.10;;;;;;;;;;5075051;28;20287;-76
2023/07/04 03:22:42;;;;;;;0.10;0.10;;;;;;;;;;5098975;28;20260;-77
2023/07/04 03:25:09;;;;;;;0.10;0.10;;;;;;;;;;5077954;28;20513;-76
2023/07/04 03:27:38;;;;;;;0.10;0.10;;;;;;;;;;5099792;28;20462;-76
2023/07/04 03:30:06;;;;;;;0.10;0.10;;;;;;;;;;5084072;28;20209;-77
2023/07/04 03:32:32;;;;;;;0.10;0.10;;;;;;;;;;5072625;28;20279;-77
2023/07/04 03:35:01;;;;;;;0.00;0.00;;;;;;;;;;5084073;28;20216;-77
2023/07/04 03:37:27;;;;;;;0.00;0.00;;;;;;;;;;5089426;28;20471;-77
2023/07/04 03:39:53;;;;;;;0.00;0.00;;;;;;;;;;5084216;28;20238;-77
2023/07/04 03:42:20;;;;;;;0.10;0.10;;;;;;;;;;5089391;28;20303;-76
2023/07/04 03:44:48;;;;;;;0.10;0.10;;;;;;;;;;5084088;28;20242;-76
2023/07/04 03:47:14;;;;;;;0.10;0.10;;;;;;;;;;5089277;28;20306;-77
2023/07/04 03:49:41;;;;;;;0.10;0.10;;;;;;;;;;5083866;28;20206;-77
2023/07/04 03:52:07;;;;;;;0.10;0.10;;;;;;;;;;5089117;28;20239;-75
2023/07/04 03:54:34;;;;;;;0.00;0.00;;;;;;;;;;5083842;28;20237;-79
2023/07/04 03:57:00;;;;;;;0.05;0.05;;;;;;;;;;5088031;28;20310;-76
2023/07/04 03:59:26;;;;;;;0.00;0.00;;;;;;;;;;5084295;28;20295;-75
2023/07/04 04:01:54;;;;;;;0.10;0.10;;;;;;;;;;5086583;28;20303;-75
2023/07/04 04:04:21;;;;;;;0.10;0.10;;;;;;;;;;5085722;28;20469;-75
2023/07/04 04:06:51;;;;;;;0.10;0.10;;;;;;;;;;5086351;28;20239;-74
2023/07/04 04:09:17;;;;;;;0.05;0.05;;;;;;;;;;5085639;28;20199;-74
2023/07/04 04:11:43;;;;;;;0.00;0.00;;;;;;;;;;5085742;28;20294;-76
2023/07/04 04:14:10;;;;;;;0.10;0.10;;;;;;;;;;5086191;28;20227;-76
2023/07/04 04:16:36;;;;;;;0.03;0.03;;;;;;;;;;5084817;28;20243;-74
2023/07/04 04:19:04;;;;;;;0.10;0.10;;;;;;;;;;5087317;28;20224;-74
2023/07/04 04:21:30;;;;;;;0.00;0.00;;;;;;;;;;5083996;28;20245;-76
2023/07/04 04:23:57;;;;;;;0.10;0.10;;;;;;;;;;5088316;28;20267;-76
2023/07/04 04:26:24;;;;;;;0.10;0.10;;;;;;;;;;5083047;28;20263;-75
2023/07/04 04:28:50;;;;;;;0.10;0.10;;;;;;;;;;5088786;28;20243;-74
2023/07/04 04:31:17;;;;;;;0.10;0.10;;;;;;;;;;5082235;28;20235;-75
2023/07/04 04:33:43;;;;;;;0.10;0.10;;;;;;;;;;5089788;28;20246;-75
2023/07/04 04:36:11;;;;;;;0.00;0.00;;;;;;;;;;5081341;28;20485;-76
2023/07/04 04:38:37;;;;;;;0.52;0.52;;;;;;;;;;5090592;28;20223;-76
2023/07/04 04:41:04;;;;;;;0.03;0.03;;;;;;;;;;5080040;28;20260;-74
2023/07/04 04:43:32;;;;;;;0.08;0.08;;;;;;;;;;5091966;28;20251;-71
2023/07/04 04:45:59;;;;;;;0.00;0.00;;;;;;;;;;5079755;28;20292;-70
2023/07/04 04:48:29;;;;;;;0.10;0.10;;;;;;;;;;5092406;28;20201;-71
2023/07/04 04:50:55;;;;;;;0.00;0.00;;;;;;;;;;5079167;28;20260;-71
2023/07/04 04:53:24;;;;;;;0.30;0.30;;;;;;;;;;5092458;28;20273;-71
2023/07/04 04:55:51;;;;;;;0.00;0.00;;;;;;;;;;5078588;28;20243;-71
2023/07/04 04:58:18;;;;;;;0.00;0.00;;;;;;;;;;5093165;28;20262;-72
2023/07/04 05:00:44;;;;;;;0.00;0.00;;;;;;;;;;5077478;28;20249;-72
2023/07/04 05:03:11;;;;;;;0.10;0.10;;;;;;;;;;5094156;28;20204;-72
2023/07/04 05:05:37;;;;;;;0.05;0.05;;;;;;;;;;5076495;28;20301;-72
2023/07/04 05:08:04;;;;;;;0.20;0.20;;;;;;;;;;5094683;28;20208;-72
2023/07/04 05:10:34;;;;;;;0.00;0.00;;;;;;;;;;5075670;28;20311;-72
2023/07/04 05:13:00;;;;;;;0.03;0.03;;;;;;;;;;5095564;28;20243;-72
2023/07/04 05:15:27;;;;;;;0.10;0.10;;;;;;;;;;5075460;28;20492;-72
2023/07/04 05:17:53;;;;;;;0.10;0.10;;;;;;;;;;5096210;28;20440;-72
2023/07/04 05:20:23;;;;;;;0.10;0.10;;;;;;;;;;5074366;28;20389;-72
2023/07/04 05:22:50;;;;;;;0.70;0.70;;;;;;;;;;5096714;28;20558;-72
2023/07/04 05:25:16;;;;;;;0.00;0.00;;;;;;;;;;5074822;28;20220;-72
2023/07/04 05:27:44;;;;;;;0.10;0.10;;;;;;;;;;5101089;28;20265;-71
2023/07/04 05:30:10;;;;;;;0.00;0.00;;;;;;;;;;5076611;28;20205;-72
2023/07/04 05:32:37;;;;;;;0.00;0.00;;;;;;;;;;5101557;28;20302;-72
2023/07/04 05:35:03;;;;;;;0.10;0.10;;;;;;;;;;5086379;28;20250;-72
2023/07/04 05:37:31;;;;;;;0.00;0.00;;;;;;;;;;5091764;28;20299;-72
2023/07/04 05:39:57;;;;;;;0.10;0.10;;;;;;;;;;5085978;28;20267;-72
2023/07/04 05:42:24;;;;;;;0.10;0.10;;;;;;;;;;5091665;28;20263;-71
2023/07/04 05:44:52;;;;;;;0.03;0.03;;;;;;;;;;5086178;28;20212;-72
2023/07/04 05:47:18;;;;;;;0.00;0.00;;;;;;;;;;5091569;28;20290;-72
2023/07/04 05:49:45;;;;;;;0.05;0.05;;;;;;;;;;5086006;28;20206;-72
2023/07/04 05:52:11;;;;;;;0.10;0.10;;;;;;;;;;5091593;28;20286;-72
2023/07/04 05:54:37;;;;;;;0.00;0.00;;;;;;;;;;5085928;28;20210;-72
2023/07/04 05:57:04;;;;;;;0.00;0.00;;;;;;;;;;5091017;28;20275;-72
2023/07/04 05:59:30;;;;;;;2.20;1.00;;;;;;;;;;5086742;28;20290;-72
2023/07/04 06:01:59;;;;;;;0.10;0.10;;;;;;;;;;5089450;28;20285;-72
2023/07/04 06:04:26;;;;;;;0.00;0.00;;;;;;;;;;5087364;28;20215;-72
2023/07/04 06:06:53;;;;;;;0.10;0.10;;;;;;;;;;5089150;28;20317;-72
2023/07/04 06:09:20;;;;;;;0.10;0.10;;;;;;;;;;5087888;28;20199;-72
2023/07/04 06:11:48;;;;;;;0.05;0.05;;;;;;;;;;5088349;28;20246;-72
2023/07/04 06:14:16;;;;;;;0.05;0.05;;;;;;;;;;5088395;28;20276;-72
2023/07/04 06:16:42;;;;;;;0.00;0.00;;;;;;;;;;5087900;28;20482;-72
2023/07/04 06:19:10;;;;;;;0.20;0.20;;;;;;;;;;5088463;28;20235;-72
2023/07/04 06:21:36;;;;;;;0.10;0.10;;;;;;;;;;5086920;28;20240;-72
2023/07/04 06:24:03;;;;;;;0.00;0.00;;;;;;;;;;5089656;28;20219;-72
2023/07/04 06:26:32;;;;;;;0.00;0.00;;;;;;;;;;5085846;28;20247;-72
2023/07/04 06:28:58;;;;;;;0.35;0.20;;;;;;;;;;5089708;28;20220;-72
2023/07/04 06:31:25;;;;;;;0.10;0.10;;;;;;;;;;5085163;28;20315;-72
2023/07/04 06:33:52;;;;;;;0.10;0.10;;;;;;;;;;5090567;28;20232;-72
2023/07/04 06:36:20;;;;;;;0.75;0.75;;;;;;;;;;5083943;28;20240;-72
2023/07/04 06:38:46;;;;;;;0.00;0.00;;;;;;;;;;5091156;28;20217;-72
2023/07/04 06:41:14;;;;;;;0.05;0.05;;;;;;;;;;5083357;28;20239;-72
2023/07/04 06:43:43;;;;;;;0.00;0.00;;;;;;;;;;5092281;28;20245;-71
2023/07/04 06:46:09;;;;;;;0.05;0.05;;;;;;;;;;5082852;28;20251;-72
2023/07/04 06:48:36;;;;;;;0.00;0.00;;;;;;;;;;5092371;28;20271;-72
2023/07/04 06:51:03;;;;;;;0.10;0.10;;;;;;;;;;5081857;28;20304;-72
2023/07/04 06:53:31;;;;;;;0.05;0.05;;;;;;;;;;5093487;28;20277;-72
2023/07/04 06:56:04;;;;;;;0.10;0.10;;;;;;;;;;5081202;28;20246;-72
2023/07/04 06:58:30;;;;;;;0.08;0.08;;;;;;;;;;5092873;28;20194;-72
2023/07/04 07:00:57;;;;;;;0.10;0.10;;;;;;;;;;5080987;28;20309;-73
2023/07/04 07:03:23;;;;;;;0.10;0.10;;;;;;;;;;5093724;28;20243;-72
2023/07/04 07:05:50;;;;;;;0.10;0.10;;;;;;;;;;5079756;28;20241;-72
2023/07/04 07:08:16;;;;;;;0.10;0.10;;;;;;;;;;5094677;28;20215;-72
2023/07/04 07:10:52;;;;;;;0.10;0.10;;;;;;;;;;5078842;28;20245;-72
2023/07/04 07:13:18;;;;;;;0.00;0.00;;;;;;;;;;5094385;28;20271;-72
2023/07/04 07:15:45;;;;;;;0.28;0.28;;;;;;;;;;5079021;28;20247;-72
2023/07/04 07:18:11;;;;;;;0.10;0.10;;;;;;;;;;5095670;28;20207;-72
2023/07/04 07:20:37;;;;;;;0.10;0.10;;;;;;;;;;5078049;28;20509;-73
2023/07/04 07:23:04;;;;;;;0.10;0.10;;;;;;;;;;5096341;28;20412;-72
2023/07/04 07:25:30;;;;;;;0.10;0.10;;;;;;;;;;5077126;28;20587;-72
2023/07/04 07:27:58;;;;;;;0.10;0.10;;;;;;;;;;5097126;28;20421;-72
2023/07/04 07:30:24;;;;;;;0.10;0.10;;;;;;;;;;5076122;28;20214;-72
2023/07/04 07:32:50;;;;;;;0.08;0.08;;;;;;;;;;5097601;28;20232;-73
2023/07/04 07:35:17;;;;;;;0.10;0.10;;;;;;;;;;5075227;28;20571;-72
2023/07/04 07:37:43;;;;;;;0.00;0.00;;;;;;;;;;5098399;28;20200;-72
2023/07/04 07:40:10;;;;;;;0.52;0.45;;;;;;;;;;5073913;28;20226;-72
2023/07/04 07:42:37;;;;;;;0.03;0.03;;;;;;;;;;5099512;28;20260;-72
2023/07/04 07:45:05;;;;;;;0.10;0.10;;;;;;;;;;5084083;28;20220;-72
2023/07/04 07:47:31;;;;;;;0.20;0.20;;;;;;;;;;5088721;28;20253;-72
2023/07/04 07:49:58;;;;;;;0.08;0.08;;;;;;;;;;5084035;28;20559;-72
2023/07/04 07:52:24;;;;;;;0.00;0.00;;;;;;;;;;5089302;28;20265;-72
2023/07/04 07:54:51;;;;;;;1.05;0.95;;;;;;;;;;5083986;28;20206;-72
2023/07/04 07:57:17;;;;;;;0.10;0.10;;;;;;;;;;5089235;28;20239;-72
2023/07/04 07:59:44;;;;;;;0.00;0.00;;;;;;;;;;5083595;28;20562;-72
2023/07/04 08:02:14;;;;;;;0.00;0.00;;;;;;;;;;5089176;28;20523;-71
2023/07/04 08:04:40;;;;;;;0.00;0.00;;;;;;;;;;5083735;28;20284;-72
2023/07/04 08:07:08;;;;;;;0.10;0.10;;;;;;;;;;5088834;28;20287;-72
2023/07/04 08:09:35;;;;;;;0.08;0.08;;;;;;;;;;5083529;28;20219;-72
2023/07/04 08:12:01;;;;;;;0.10;0.10;;;;;;;;;;5087901;28;20289;-72
2023/07/04 08:14:27;;;;;;;0.00;0.00;;;;;;;;;;5084489;28;20227;-72
2023/07/04 08:16:54;;;;;;;0.10;0.10;;;;;;;;;;5087039;28;20307;-72
2023/07/04 08:19:24;;;;;;;1.65;1.55;;;;;;;;;;5085350;28;20229;-72
2023/07/04 08:21:50;;;;;;;0.00;0.00;;;;;;;;;;5086667;28;20568;-73
2023/07/04 08:24:17;;;;;;;0.08;0.08;;;;;;;;;;5085783;28;20460;-72
2023/07/04 08:26:45;;;;;;;0.00;0.00;;;;;;;;;;5085667;28;20300;-73
2023/07/04 08:29:11;;;;;;;0.03;0.03;;;;;;;;;;5086321;28;20203;-72
2023/07/04 08:31:38;;;;;;;0.00;0.00;;;;;;;;;;5084899;28;20236;-72
2023/07/04 08:34:05;;;;;;;0.05;0.05;;;;;;;;;;5087436;28;20403;-72
2023/07/04 08:36:33;;;;;;;0.00;0.00;;;;;;;;;;5084040;28;20498;-72
2023/07/04 08:38:59;;;;;;;0.03;0.03;;;;;;;;;;5088047;28;20237;-72
2023/07/04 08:41:28;;;;;;;0.10;0.10;;;;;;;;;;5083204;28;20246;-72
2023/07/04 08:43:57;;;;;;;0.30;0.30;;;;;;;;;;5088379;28;20207;-73
2023/07/04 08:46:24;;;;;;;0.00;0.00;;;;;;;;;;5082905;28;20240;-72
2023/07/04 08:48:50;;;;;;;0.05;0.05;;;;;;;;;;5089204;28;20211;-72
2023/07/04 08:51:18;;;;;;;0.08;0.08;;;;;;;;;;5081994;28;20264;-73
2023/07/04 08:53:49;;;;;;;1.85;0.90;;;;;;;;;;5089457;28;20235;-72
2023/07/04 08:56:17;;;;;;;0.00;0.00;;;;;;;;;;5082039;28;20249;-72
2023/07/04 08:58:49;;;;;;;0.10;0.10;;;;;;;;;;5089791;28;20274;-73
2023/07/04 09:01:19;;;;;;;0.00;0.00;;;;;;;;;;5085711;28;20245;-73
2023/07/04 09:03:50;;;;;;;0.10;0.10;;;;;;;;;;5093439;28;20440;-73
2023/07/04 09:06:22;;;;;;;0.00;0.00;;;;;;;;;;5085926;28;20453;-73
2023/07/04 09:08:56;;;;;;;0.00;0.00;;;;;;;;;;5092658;28;20202;-73
2023/07/04 09:11:23;;;;;;;0.00;0.00;;;;;;;;;;5086623;28;20238;-72
2023/07/04 09:13:51;;;;;;;0.03;0.03;;;;;;;;;;5093009;28;20234;-72
2023/07/04 09:16:21;;;;;;;0.00;0.00;;;;;;;;;;5085740;28;20242;-73
2023/07/04 09:18:52;;;;;;;0.00;0.00;;;;;;;;;;5092711;28;20267;-73
2023/07/04 09:21:19;;;;;;;0.05;0.05;;;;;;;;;;5085358;28;20239;-73
2023/07/04 09:23:47;;;;;;;0.00;0.00;;;;;;;;;;5093311;28;20213;-73
2023/07/04 09:26:17;;;;;;;0.00;0.00;;;;;;;;;;5084865;28;20258;-73
2023/07/04 09:28:45;;;;;;;0.00;0.00;;;;;;;;;;5093159;28;20274;-73
2023/07/04 09:31:13;;;;;;;0.10;0.10;;;;;;;;;;5084752;28;20481;-73
2023/07/04 09:33:40;;;;;;;0.10;0.10;;;;;;;;;;5093478;28;20234;-73
2023/07/04 09:36:08;;;;;;;0.00;0.00;;;;;;;;;;5083961;28;20573;-73
2023/07/04 09:38:51;;;;;;;0.00;0.00;;;;;;;;;;5094370;28;20458;-72
2023/07/04 09:41:19;;;;;;;0.00;0.00;;;;;;;;;;5085009;28;20305;-73
2023/07/04 09:43:45;;;;;;;0.00;0.00;;;;;;;;;;5092848;28;20238;-72
2023/07/04 09:46:14;;;;;;;0.00;0.00;;;;;;;;;;5084517;28;20301;-73
2023/07/04 09:48:40;;;;;;;0.00;0.00;;;;;;;;;;5093378;28;20204;-73
2023/07/04 09:51:17;;;;;;;0.00;0.00;;;;;;;;;;5083594;28;20313;-73
2023/07/04 09:53:43;;;;;;;0.00;0.00;;;;;;;;;;5092895;28;20272;-73
2023/07/04 09:56:10;;;;;;;0.03;0.03;;;;;;;;;;5083947;28;20261;-74
2023/07/04 09:58:38;;;;;;;0.00;0.00;;;;;;;;;;5093428;28;20235;-73
2023/07/04 10:01:08;;;;;;;0.00;0.00;;;;;;;;;;5082987;28;20309;-72
2023/07/04 10:03:35;;;;;;;0.03;0.03;;;;;;;;;;5093859;28;20479;-72
2023/07/04 10:06:02;;;;;;;0.00;0.00;;;;;;;;;;5082616;28;20305;-72
2023/07/04 10:08:29;;;;;;;0.15;0.15;;;;;;;;;;5094534;28;20453;-72
2023/07/04 10:10:57;;;;;;;0.00;0.00;;;;;;;;;;5080943;28;20309;-72
2023/07/04 10:13:25;;;;;;;0.10;0.10;;;;;;;;;;5095033;28;20244;-71
2023/07/04 10:15:53;;;;;;;0.20;0.20;;;;;;;;;;5081096;28;20243;-72
2023/07/04 10:18:29;;;;;;;0.10;0.10;;;;;;;;;;5095725;28;20242;-72
2023/07/04 10:20:56;;;;;;;0.00;0.00;;;;;;;;;;5081441;28;20242;-72
2023/07/04 10:23:23;;;;;;;0.00;0.00;;;;;;;;;;5094746;28;20221;-72
2023/07/04 10:25:51;;;;;;;0.00;0.00;;;;;;;;;;5080663;28;20299;-72
2023/07/04 10:28:18;;;;;;;0.00;0.00;;;;;;;;;;5095386;28;20241;-73
2023/07/04 10:30:47;;;;;;;0.20;0.20;;;;;;;;;;5079901;28;20291;-72
2023/07/04 10:33:17;;;;;;;1.13;1.13;;;;;;;;;;5095796;28;20211;-72
2023/07/04 10:35:47;;;;;;;0.00;0.00;;;;;;;;;;5079620;28;20622;-72
2023/07/04 10:38:18;;;;;;;0.00;0.00;;;;;;;;;;5095984;28;20401;-72
2023/07/04 10:40:45;;;;;;;0.00;0.00;;;;;;;;;;5079700;28;20430;-72
2023/07/04 10:43:14;;;;;;;0.20;0.20;;;;;;;;;;5096139;28;20192;-72
2023/07/04 10:45:41;;;;;;;0.20;0.20;;;;;;;;;;5079072;28;20258;-72
2023/07/04 10:48:14;;;;;;;0.20;0.20;;;;;;;;;;5096656;28;20230;-72
2023/07/04 10:50:45;;;;;;;0.10;0.10;;;;;;;;;;5079006;28;20261;-72
2023/07/04 10:53:13;;;;;;;0.00;0.00;;;;;;;;;;5096060;28;20533;-72
2023/07/04 10:55:41;;;;;;;0.00;0.00;;;;;;;;;;5078765;28;20302;-73
2023/07/04 10:58:13;;;;;;;0.20;0.20;;;;;;;;;;5095883;28;20271;-72
2023/07/04 11:00:41;;;;;;;2.17;1.42;;;;;;;;;;5078719;28;20492;-73
2023/07/04 11:03:09;;;;;;;7.20;0.55;;;;;;;;;;5095804;28;20245;-72
2023/07/04 11:05:36;;;;;;;0.60;0.60;;;;;;;;;;5078102;28;20246;-72
2023/07/04 11:08:38;;;;;;;0.32;0.32;;;;;;;;;;5097931;28;20203;-71
2023/07/04 11:11:09;;;;;;;0.00;0.00;;;;;;;;;;5082139;28;20242;-72
2023/07/04 11:13:35;;;;;;;0.00;0.00;;;;;;;;;;5092441;28;20390;-71
2023/07/04 11:16:04;;;;;;;0.65;0.65;;;;;;;;;;5081070;28;20242;-71
2023/07/04 11:18:31;;;;;;;0.10;0.10;;;;;;;;;;5093064;28;20269;-73
2023/07/04 11:21:07;;;;;;;0.10;0.10;;;;;;;;;;5080791;28;20243;-72
2023/07/04 11:23:43;;;;;;;0.45;0.45;;;;;;;;;;5091111;28;20210;-72
2023/07/04 11:26:11;;;;;;;0.00;0.00;;;;;;;;;;5082098;28;20242;-72
2023/07/04 11:28:45;;;;;;;0.17;0.17;;;;;;;;;;5091560;28;20278;-72
2023/07/04 11:31:17;;;;;;;0.00;0.00;;;;;;;;;;5082191;28;20237;-71
2023/07/04 11:34:00;;;;;;;0.15;0.15;;;;;;;;;;5090994;28;20214;-71
2023/07/04 11:36:29;;;;;;;1.00;1.00;;;;;;;;;;5084329;28;20242;-72
2023/07/04 11:38:58;;;;;;;0.00;0.00;;;;;;;;;;5088891;28;20203;-72
2023/07/04 11:41:30;;;;;;;0.13;0.13;;;;;;;;;;5083910;28;20261;-72
2023/07/04 11:44:00;;;;;;;0.20;0.20;;;;;;;;;;5088775;28;20270;-72
2023/07/04 11:46:28;;;;;;;36.08;33.15;;;;;;;;;;5084258;28;20245;-72
2023/07/04 11:48:56;;;;;;;0.00;0.00;;;;;;;;;;5088767;28;20203;-72
2023/07/04 11:51:24;;;;;;;0.00;0.00;;;;;;;;;;5083553;28;20597;-72
2023/07/04 11:53:54;;;;;;;0.10;0.10;;;;;;;;;;5089523;28;20208;-72
2023/07/04 11:56:33;;;;;;;0.00;0.00;;;;;;;;;;5083193;28;20244;-72
2023/07/04 11:59:16;;;;;;;0.00;0.00;;;;;;;;;;5088014;28;20258;-73
2023/07/04 12:02:03;;;;;;;0.00;0.00;;;;;;;;;;5085390;28;20582;-72
2023/07/04 12:04:45;;;;;;;0.00;0.00;;;;;;;;;;5083778;28;20362;-72
2023/07/04 12:07:17;;;;;;;0.85;0.85;;;;;;;;;;5089125;28;20241;-73
2023/07/04 12:09:46;;;;;;;0.10;0.10;;;;;;;;;;5083848;28;20192;-72
2023/07/04 12:12:20;;;;;;;0.00;0.00;;;;;;;;;;5089063;28;20255;-73
2023/07/04 12:14:48;;;;;;;0.10;0.10;;;;;;;;;;5083902;28;20499;-73
2023/07/04 12:17:15;;;;;;;0.00;0.00;;;;;;;;;;5088880;28;20245;-73
2023/07/04 12:19:42;;;;;;;0.10;0.10;;;;;;;;;;5083799;28;20210;-73
2023/07/04 12:22:15;;;;;;;4.70;4.25;;;;;;;;;;5088877;28;20565;-72
2023/07/04 12:24:41;;;;;;;0.00;0.00;;;;;;;;;;5083761;28;20427;-72
2023/07/04 12:27:08;;;;;;;0.00;0.00;;;;;;;;;;5088674;28;20246;-72
2023/07/04 12:29:42;;;;;;;0.00;0.00;;;;;;;;;;5083830;28;20203;-72
2023/07/04 12:32:13;;;;;;;0.00;0.00;;;;;;;;;;5088908;28;20245;-72
2023/07/04 12:34:40;;;;;;;0.00;0.00;;;;;;;;;;5085172;28;20271;-73
2023/07/04 12:37:14;;;;;;;0.10;0.10;;;;;;;;;;5092819;28;20597;-72
2023/07/04 12:39:44;;;;;;;0.00;0.00;;;;;;;;;;5087750;28;20191;-72
2023/07/04 12:42:13;;;;;;;0.00;0.00;;;;;;;;;;5092916;28;20306;-72
2023/07/04 12:44:39;;;;;;;0.32;0.30;;;;;;;;;;5087656;28;20443;-72
2023/07/04 12:47:09;;;;;;;0.15;0.15;;;;;;;;;;5092520;28;20440;-72
2023/07/04 12:49:35;;;;;;;0.80;0.80;;;;;;;;;;5087271;28;20274;-72
2023/07/04 12:52:02;;;;;;;0.00;0.00;;;;;;;;;;5091876;28;20256;-72
2023/07/04 12:54:29;;;;;;;0.00;0.00;;;;;;;;;;5088051;28;20257;-73
2023/07/04 12:56:57;;;;;;;0.32;0.32;;;;;;;;;;5091014;28;20556;-72
2023/07/04 12:59:33;;;;;;;0.00;0.00;;;;;;;;;;5088401;28;20210;-72
2023/07/04 13:02:02;;;;;;;0.00;0.00;;;;;;;;;;5091291;28;20308;-72
2023/07/04 13:04:28;;;;;;;1.85;1.17;;;;;;;;;;5087650;28;20539;-73
2023/07/04 13:06:56;;;;;;;0.30;0.30;;;;;;;;;;5090659;28;20242;-73
2023/07/04 13:09:22;;;;;;;0.00;0.00;;;;;;;;;;5088632;28;20464;-72
2023/07/04 13:11:50;;;;;;;0.00;0.00;;;;;;;;;;5089881;28;20254;-72
2023/07/04 13:14:22;;;;;;;4.18;1.17;;;;;;;;;;5088859;28;20271;-72
2023/07/04 13:16:48;;;;;;;0.00;0.00;;;;;;;;;;5089695;28;20309;-72
2023/07/04 13:19:17;;;;;;;0.00;0.00;;;;;;;;;;5089359;28;20270;-72
2023/07/04 13:21:45;;;;;;;0.00;0.00;;;;;;;;;;5088896;28;20230;-73
2023/07/04 13:24:13;;;;;;;0.00;0.00;;;;;;;;;;5089602;28;20451;-72
2023/07/04 13:26:40;;;;;;;0.55;0.55;;;;;;;;;;5088679;28;20254;-73
2023/07/04 13:29:15;;;;;;;0.00;0.00;;;;;;;;;;5090187;28;20380;-72
2023/07/04 13:31:43;;;;;;;0.47;0.40;;;;;;;;;;5088465;28;20252;-73
2023/07/04 13:34:13;;;;;;;3.00;2.83;;;;;;;;;;5089868;28;20203;-72
2023/07/04 13:36:41;;;;;;;0.00;0.00;;;;;;;;;;5088185;28;20239;-73
2023/07/04 13:39:09;;;;;;;0.10;0.10;;;;;;;;;;5089701;28;20429;-72
2023/07/04 13:41:36;;;;;;;0.10;0.10;;;;;;;;;;5087505;28;20285;-73
2023/07/04 13:44:02;;;;;;;0.40;0.40;;;;;;;;;;5090566;28;20210;-72
2023/07/04 13:46:29;;;;;;;0.32;0.32;;;;;;;;;;5085481;28;20492;-72
2023/07/04 13:48:57;;;;;;;0.05;0.05;;;;;;;;;;5091104;28;20230;-72
2023/07/04 13:51:25;;;;;;;0.00;0.00;;;;;;;;;;5085885;28;20261;-72
2023/07/04 13:53:52;;;;;;;0.00;0.00;;;;;;;;;;5091530;28;20317;-73
2023/07/04 13:56:18;;;;;;;1.27;0.75;;;;;;;;;;5086938;28;20254;-72
2023/07/04 13:58:45;;;;;;;0.00;0.00;;;;;;;;;;5092297;28;20271;-71
2023/07/04 14:01:11;;;;;;;0.35;0.30;;;;;;;;;;5084166;28;20265;-73
2023/07/04 14:03:38;;;;;;;0.52;0.52;;;;;;;;;;5093134;28;20270;-72
2023/07/04 14:06:06;;;;;;;0.00;0.00;;;;;;;;;;5082816;28;20254;-72
2023/07/04 14:08:33;;;;;;;0.00;0.00;;;;;;;;;;5093860;28;20258;-72
2023/07/04 14:11:00;;;;;;;0.20;0.20;;;;;;;;;;5082208;28;20231;-72
2023/07/04 14:13:26;;;;;;;0.00;0.00;;;;;;;;;;5094636;28;20227;-72
2023/07/04 14:15:54;;;;;;;0.30;0.30;;;;;;;;;;5081274;28;20458;-79
2023/07/04 14:18:22;;;;;;;0.00;0.00;;;;;;;;;;5095372;28;20270;-78
2023/07/04 14:20:49;;;;;;;0.82;0.40;;;;;;;;;;5080670;28;20238;-78
2023/07/04 14:23:17;;;;;;;0.98;0.98;;;;;;;;;;5096184;28;20370;-79
2023/07/04 14:25:44;;;;;;;0.82;0.82;;;;;;;;;;5080041;28;20239;-79
2023/07/04 14:28:10;;;;;;;0.20;0.20;;;;;;;;;;5096332;28;20203;-78
2023/07/04 14:30:39;;;;;;;0.00;0.00;;;;;;;;;;5078864;28;20250;-78
2023/07/04 14:33:05;;;;;;;0.00;0.00;;;;;;;;;;5096973;28;20233;-78
2023/07/04 14:35:31;;;;;;;0.00;0.00;;;;;;;;;;5078324;28;20330;-77
2023/07/04 14:37:58;;;;;;;0.00;0.00;;;;;;;;;;5097976;28;20219;-78
2023/07/04 14:40:27;;;;;;;0.00;0.00;;;;;;;;;;5077154;28;20207;-77
2023/07/04 14:42:54;;;;;;;1.88;1.35;;;;;;;;;;5098192;28;20223;-77
2023/07/04 14:45:20;;;;;;;0.75;0.75;;;;;;;;;;5076330;28;20204;-77
2023/07/04 14:47:47;;;;;;;3.00;0.50;;;;;;;;;;5099366;28;20215;-77